createdAt,value
2022-12-04T00:04:12.607Z,101151.34
2022-12-04T00:14:49.023Z,101131.25
2022-12-04T00:19:58.802Z,101130.84
2022-12-04T00:25:00.247Z,101130.72
2022-12-04T00:30:08.110Z,101129.63
2022-12-04T00:35:23.842Z,101131.97
2022-12-04T00:40:25.458Z,101119.38
2022-12-04T00:45:27.039Z,101119.38
2022-12-04T00:50:28.734Z,101117.59
2022-12-04T00:55:30.345Z,101119.78
2022-12-04T01:00:31.722Z,101104.19
2022-12-04T01:05:46.578Z,101107.50
2022-12-04T01:10:48.473Z,101101.00
2022-12-04T01:15:50.087Z,101109.69
2022-12-04T01:20:54.446Z,101117.06
2022-12-04T01:26:02.777Z,101110.00
2022-12-04T01:31:10.968Z,101110.56
2022-12-04T01:36:15.536Z,101115.56
2022-12-04T01:41:27.715Z,101103.53
2022-12-04T01:46:29.251Z,101100.91
2022-12-04T01:51:35.804Z,101107.34
2022-12-04T01:56:45.229Z,101095.34
2022-12-04T02:01:57.385Z,101098.63
2022-12-04T02:12:22.229Z,101092.16
2022-12-04T02:18:05.776Z,101094.78
2022-12-04T02:23:44.868Z,101109.56
2022-12-04T02:29:26.670Z,101100.59
2022-12-04T02:34:48.189Z,101107.13
2022-12-04T02:40:03.353Z,101097.13
2022-12-04T02:45:23.800Z,101110.16
2022-12-04T02:50:32.185Z,101102.13
2022-12-04T02:56:15.391Z,101100.06
2022-12-04T03:01:23.196Z,101094.25
2022-12-04T03:06:28.438Z,101098.53
2022-12-04T03:11:38.724Z,101101.59
2022-12-04T03:16:41.421Z,101106.59
2022-12-04T03:22:42.339Z,101115.44
2022-12-04T03:27:57.285Z,101107.25
2022-12-04T03:33:11.531Z,101099.50
2022-12-04T03:38:33.857Z,101092.38
2022-12-04T03:44:01.856Z,101105.22
2022-12-04T03:49:21.391Z,101102.03
2022-12-04T03:54:31.454Z,101097.06
2022-12-04T03:59:45.550Z,101102.88
2022-12-04T04:05:00.793Z,101107.81
2022-12-04T04:10:10.927Z,101111.28
2022-12-04T04:15:26.043Z,101115.56
2022-12-04T04:20:42.156Z,101108.66
2022-12-04T04:25:56.148Z,101109.75
2022-12-04T04:31:27.013Z,101102.31
2022-12-04T04:37:08.017Z,101107.28
2022-12-04T04:42:40.546Z,101102.84
2022-12-04T04:47:56.466Z,101094.31
2022-12-04T04:53:02.373Z,101092.66
2022-12-04T04:58:08.509Z,101090.41
2022-12-04T05:03:10.178Z,101097.34
2022-12-04T05:08:11.687Z,101099.81
2022-12-04T05:13:14.000Z,101100.78
2022-12-04T05:18:15.305Z,101088.91
2022-12-04T05:23:16.798Z,101091.00
2022-12-04T05:28:18.228Z,101090.41
2022-12-04T05:33:19.578Z,101090.41
2022-12-04T05:38:20.965Z,101087.66
2022-12-04T05:43:22.319Z,101085.31
2022-12-04T05:48:23.754Z,101088.47
2022-12-04T05:53:25.178Z,101084.47
2022-12-04T05:58:27.367Z,101087.78
2022-12-04T06:03:28.736Z,101087.09
2022-12-04T06:08:31.817Z,101087.66
2022-12-04T06:13:33.242Z,101098.72
2022-12-04T06:18:34.646Z,101098.28
2022-12-04T06:23:36.263Z,101105.63
2022-12-04T06:28:37.689Z,101100.78
2022-12-04T06:33:39.459Z,101110.28
2022-12-04T06:38:41.217Z,101119.97
2022-12-04T06:43:42.939Z,101120.50
2022-12-04T06:48:44.767Z,101113.84
2022-12-04T06:53:46.496Z,101126.13
2022-12-04T06:58:50.006Z,101126.25
2022-12-04T07:03:52.066Z,101124.56
2022-12-04T07:08:57.762Z,101120.31
2022-12-04T07:13:59.426Z,101124.97
2022-12-04T07:19:00.857Z,101130.78
2022-12-04T07:24:02.363Z,101131.41
2022-12-04T07:29:03.763Z,101128.25
2022-12-04T07:34:05.195Z,101136.28
2022-12-04T07:39:06.777Z,101135.34
2022-12-04T07:44:08.199Z,101143.56
2022-12-04T07:49:11.897Z,101145.94
2022-12-04T07:54:13.238Z,101136.97
2022-12-04T07:59:15.095Z,101135.25
2022-12-04T08:04:16.471Z,101136.84
